sensor_id;sensor_type;location;lat;lon;timestamp;P1;durP1;ratioP1;P2;durP2;ratioP2
17570;SDS011;8903;52.220;20.978;2022-11-15T00:00:21;33.23;;;21.30;;
17570;SDS011;8903;52.220;20.978;2022-11-15T00:03:08;28.53;;;20.50;;
17570;SDS011;8903;52.220;20.978;2022-11-15T00:05:54;33.57;;;22.40;;
17570;SDS011;8903;52.220;20.978;2022-11-15T00:08:45;30.07;;;20.50;;
17570;SDS011;8903;52.220;20.978;2022-11-15T00:11:31;36.00;;;22.07;;
17570;SDS011;8903;52.220;20.978;2022-11-15T00:14:17;32.50;;;21.00;;
17570;SDS011;8903;52.220;20.978;2022-11-15T00:17:02;29.67;;;19.23;;
17570;SDS011;8903;52.220;20.978;2022-11-15T00:19:49;33.83;;;20.97;;
17570;SDS011;8903;52.220;20.978;2022-11-15T00:22:35;35.73;;;21.77;;
17570;SDS011;8903;52.220;20.978;2022-11-15T00:25:21;34.57;;;22.70;;
17570;SDS011;8903;52.220;20.978;2022-11-15T00:28:07;32.10;;;21.00;;
17570;SDS011;8903;52.220;20.978;2022-11-15T00:30:53;37.77;;;22.30;;
17570;SDS011;8903;52.220;20.978;2022-11-15T00:33:39;33.23;;;22.40;;
17570;SDS011;8903;52.220;20.978;2022-11-15T00:36:28;35.10;;;23.70;;
17570;SDS011;8903;52.220;20.978;2022-11-15T00:39:17;38.87;;;24.10;;
17570;SDS011;8903;52.220;20.978;2022-11-15T00:42:03;40.13;;;23.17;;
17570;SDS011;8903;52.220;20.978;2022-11-15T00:44:49;39.83;;;25.07;;
17570;SDS011;8903;52.220;20.978;2022-11-15T00:47:36;42.13;;;24.20;;
17570;SDS011;8903;52.220;20.978;2022-11-15T00:50:23;38.33;;;23.87;;
17570;SDS011;8903;52.220;20.978;2022-11-15T00:53:10;38.07;;;24.80;;
17570;SDS011;8903;52.220;20.978;2022-11-15T00:55:56;39.03;;;26.23;;
17570;SDS011;8903;52.220;20.978;2022-11-15T00:58:42;47.73;;;27.80;;
17570;SDS011;8903;52.220;20.978;2022-11-15T01:01:28;50.03;;;28.30;;
17570;SDS011;8903;52.220;20.978;2022-11-15T01:04:13;43.37;;;25.60;;
17570;SDS011;8903;52.220;20.978;2022-11-15T01:07:02;49.53;;;28.43;;
17570;SDS011;8903;52.220;20.978;2022-11-15T01:09:49;46.00;;;27.80;;
17570;SDS011;8903;52.220;20.978;2022-11-15T01:12:34;53.47;;;30.50;;
17570;SDS011;8903;52.220;20.978;2022-11-15T01:15:20;47.00;;;29.40;;
17570;SDS011;8903;52.220;20.978;2022-11-15T01:18:06;52.43;;;29.60;;
17570;SDS011;8903;52.220;20.978;2022-11-15T01:20:51;51.53;;;28.33;;
17570;SDS011;8903;52.220;20.978;2022-11-15T01:23:37;48.80;;;29.13;;
17570;SDS011;8903;52.220;20.978;2022-11-15T01:26:25;45.20;;;25.90;;
17570;SDS011;8903;52.220;20.978;2022-11-15T01:29:10;48.37;;;28.60;;
17570;SDS011;8903;52.220;20.978;2022-11-15T01:31:56;44.37;;;26.47;;
17570;SDS011;8903;52.220;20.978;2022-11-15T01:34:41;49.63;;;28.60;;
17570;SDS011;8903;52.220;20.978;2022-11-15T01:37:27;46.23;;;27.20;;
17570;SDS011;8903;52.220;20.978;2022-11-15T01:40:14;53.93;;;28.93;;
17570;SDS011;8903;52.220;20.978;2022-11-15T01:46:06;49.47;;;27.60;;
17570;SDS011;8903;52.220;20.978;2022-11-15T01:49:05;54.93;;;27.40;;
17570;SDS011;8903;52.220;20.978;2022-11-15T01:51:57;43.27;;;27.20;;
17570;SDS011;8903;52.220;20.978;2022-11-15T01:54:43;46.37;;;27.37;;
17570;SDS011;8903;52.220;20.978;2022-11-15T01:57:30;47.83;;;26.03;;
17570;SDS011;8903;52.220;20.978;2022-11-15T02:00:17;49.20;;;28.20;;
17570;SDS011;8903;52.220;20.978;2022-11-15T02:03:03;48.63;;;28.27;;
17570;SDS011;8903;52.220;20.978;2022-11-15T02:05:49;48.50;;;26.80;;
17570;SDS011;8903;52.220;20.978;2022-11-15T02:08:36;49.13;;;26.60;;
17570;SDS011;8903;52.220;20.978;2022-11-15T02:11:22;48.60;;;27.20;;
17570;SDS011;8903;52.220;20.978;2022-11-15T02:14:08;50.30;;;27.20;;
17570;SDS011;8903;52.220;20.978;2022-11-15T02:16:58;47.90;;;27.10;;
17570;SDS011;8903;52.220;20.978;2022-11-15T02:20:08;43.37;;;24.83;;
17570;SDS011;8903;52.220;20.978;2022-11-15T02:27:08;42.87;;;24.00;;
17570;SDS011;8903;52.220;20.978;2022-11-15T02:30:18;47.17;;;27.40;;
17570;SDS011;8903;52.220;20.978;2022-11-15T02:33:11;46.60;;;26.53;;
17570;SDS011;8903;52.220;20.978;2022-11-15T02:36:08;56.83;;;29.47;;
17570;SDS011;8903;52.220;20.978;2022-11-15T02:38:58;52.73;;;28.47;;
17570;SDS011;8903;52.220;20.978;2022-11-15T02:41:51;50.03;;;28.10;;
17570;SDS011;8903;52.220;20.978;2022-11-15T02:44:40;53.77;;;31.03;;
17570;SDS011;8903;52.220;20.978;2022-11-15T02:47:31;50.03;;;29.30;;
17570;SDS011;8903;52.220;20.978;2022-11-15T02:50:22;51.73;;;29.10;;
17570;SDS011;8903;52.220;20.978;2022-11-15T02:53:11;54.30;;;29.40;;
17570;SDS011;8903;52.220;20.978;2022-11-15T02:55:59;53.30;;;29.70;;
17570;SDS011;8903;52.220;20.978;2022-11-15T02:58:48;54.93;;;32.47;;
17570;SDS011;8903;52.220;20.978;2022-11-15T03:01:55;54.80;;;31.50;;
17570;SDS011;8903;52.220;20.978;2022-11-15T03:04:52;59.20;;;32.37;;
17570;SDS011;8903;52.220;20.978;2022-11-15T03:07:42;55.40;;;30.90;;
17570;SDS011;8903;52.220;20.978;2022-11-15T03:10:32;57.07;;;31.53;;
17570;SDS011;8903;52.220;20.978;2022-11-15T03:13:27;53.70;;;30.40;;
17570;SDS011;8903;52.220;20.978;2022-11-15T03:16:19;59.67;;;31.23;;
17570;SDS011;8903;52.220;20.978;2022-11-15T03:19:12;59.23;;;31.97;;
17570;SDS011;8903;52.220;20.978;2022-11-15T03:22:03;56.87;;;31.60;;
17570;SDS011;8903;52.220;20.978;2022-11-15T03:24:53;60.13;;;32.77;;
17570;SDS011;8903;52.220;20.978;2022-11-15T03:27:41;54.87;;;30.63;;
17570;SDS011;8903;52.220;20.978;2022-11-15T03:30:32;55.47;;;30.57;;
17570;SDS011;8903;52.220;20.978;2022-11-15T03:33:23;51.20;;;31.37;;
17570;SDS011;8903;52.220;20.978;2022-11-15T03:36:10;58.80;;;33.20;;
17570;SDS011;8903;52.220;20.978;2022-11-15T03:38:59;53.37;;;30.20;;
17570;SDS011;8903;52.220;20.978;2022-11-15T03:41:50;60.50;;;31.17;;
17570;SDS011;8903;52.220;20.978;2022-11-15T03:44:44;55.03;;;33.30;;
17570;SDS011;8903;52.220;20.978;2022-11-15T03:47:36;59.13;;;31.67;;
17570;SDS011;8903;52.220;20.978;2022-11-15T03:50:26;62.03;;;32.20;;
17570;SDS011;8903;52.220;20.978;2022-11-15T03:53:13;66.27;;;34.17;;
17570;SDS011;8903;52.220;20.978;2022-11-15T03:56:02;56.40;;;32.20;;
17570;SDS011;8903;52.220;20.978;2022-11-15T03:58:48;56.17;;;28.60;;
17570;SDS011;8903;52.220;20.978;2022-11-15T04:01:34;60.57;;;32.10;;
17570;SDS011;8903;52.220;20.978;2022-11-15T04:04:19;60.73;;;30.60;;
17570;SDS011;8903;52.220;20.978;2022-11-15T04:07:05;60.80;;;32.33;;
17570;SDS011;8903;52.220;20.978;2022-11-15T04:09:51;57.70;;;30.60;;
17570;SDS011;8903;52.220;20.978;2022-11-15T04:12:50;58.17;;;30.00;;
17570;SDS011;8903;52.220;20.978;2022-11-15T04:15:37;59.03;;;29.03;;
17570;SDS011;8903;52.220;20.978;2022-11-15T04:18:22;60.70;;;31.13;;
17570;SDS011;8903;52.220;20.978;2022-11-15T04:21:08;55.13;;;29.70;;
17570;SDS011;8903;52.220;20.978;2022-11-15T04:24:13;58.87;;;30.13;;
17570;SDS011;8903;52.220;20.978;2022-11-15T04:26:59;64.43;;;32.00;;
17570;SDS011;8903;52.220;20.978;2022-11-15T04:29:47;61.37;;;30.23;;
17570;SDS011;8903;52.220;20.978;2022-11-15T04:32:33;62.80;;;30.93;;
17570;SDS011;8903;52.220;20.978;2022-11-15T04:35:18;56.70;;;29.83;;
17570;SDS011;8903;52.220;20.978;2022-11-15T04:38:05;60.13;;;30.33;;
17570;SDS011;8903;52.220;20.978;2022-11-15T04:40:53;59.57;;;31.40;;
17570;SDS011;8903;52.220;20.978;2022-11-15T04:43:38;59.30;;;28.73;;
17570;SDS011;8903;52.220;20.978;2022-11-15T04:46:25;54.47;;;30.50;;
17570;SDS011;8903;52.220;20.978;2022-11-15T04:49:11;60.73;;;29.47;;
17570;SDS011;8903;52.220;20.978;2022-11-15T04:51:56;59.77;;;27.90;;
17570;SDS011;8903;52.220;20.978;2022-11-15T04:54:43;57.60;;;28.77;;
17570;SDS011;8903;52.220;20.978;2022-11-15T04:57:29;61.93;;;31.10;;
17570;SDS011;8903;52.220;20.978;2022-11-15T05:00:15;63.77;;;28.50;;
17570;SDS011;8903;52.220;20.978;2022-11-15T05:03:03;61.77;;;29.30;;
17570;SDS011;8903;52.220;20.978;2022-11-15T05:06:07;72.97;;;33.13;;
17570;SDS011;8903;52.220;20.978;2022-11-15T05:08:53;67.83;;;30.50;;
17570;SDS011;8903;52.220;20.978;2022-11-15T05:11:39;58.80;;;30.23;;
17570;SDS011;8903;52.220;20.978;2022-11-15T05:14:25;64.33;;;29.83;;
17570;SDS011;8903;52.220;20.978;2022-11-15T05:17:10;60.70;;;31.07;;
17570;SDS011;8903;52.220;20.978;2022-11-15T05:19:57;68.63;;;31.53;;
17570;SDS011;8903;52.220;20.978;2022-11-15T05:22:43;72.33;;;31.93;;
17570;SDS011;8903;52.220;20.978;2022-11-15T05:25:28;61.87;;;29.57;;
17570;SDS011;8903;52.220;20.978;2022-11-15T05:28:14;71.57;;;31.00;;
17570;SDS011;8903;52.220;20.978;2022-11-15T05:31:00;59.80;;;29.87;;
17570;SDS011;8903;52.220;20.978;2022-11-15T05:33:46;59.17;;;29.23;;
17570;SDS011;8903;52.220;20.978;2022-11-15T05:36:35;75.80;;;32.40;;
17570;SDS011;8903;52.220;20.978;2022-11-15T05:39:22;67.93;;;29.07;;
17570;SDS011;8903;52.220;20.978;2022-11-15T05:42:10;67.47;;;29.07;;
17570;SDS011;8903;52.220;20.978;2022-11-15T05:44:57;63.07;;;30.43;;
17570;SDS011;8903;52.220;20.978;2022-11-15T05:47:44;70.23;;;32.40;;
17570;SDS011;8903;52.220;20.978;2022-11-15T05:50:31;71.43;;;32.33;;
17570;SDS011;8903;52.220;20.978;2022-11-15T05:53:19;74.20;;;31.20;;
17570;SDS011;8903;52.220;20.978;2022-11-15T05:56:07;67.30;;;30.00;;
17570;SDS011;8903;52.220;20.978;2022-11-15T05:58:58;66.47;;;31.47;;
17570;SDS011;8903;52.220;20.978;2022-11-15T06:01:44;65.80;;;28.47;;
17570;SDS011;8903;52.220;20.978;2022-11-15T06:04:30;61.10;;;28.47;;
17570;SDS011;8903;52.220;20.978;2022-11-15T06:07:15;76.70;;;32.80;;
17570;SDS011;8903;52.220;20.978;2022-11-15T06:10:07;71.83;;;31.20;;
17570;SDS011;8903;52.220;20.978;2022-11-15T06:12:57;58.03;;;30.77;;
17570;SDS011;8903;52.220;20.978;2022-11-15T06:15:42;67.03;;;30.37;;
17570;SDS011;8903;52.220;20.978;2022-11-15T06:18:28;68.43;;;30.90;;
17570;SDS011;8903;52.220;20.978;2022-11-15T06:21:17;67.60;;;30.47;;
17570;SDS011;8903;52.220;20.978;2022-11-15T06:24:03;68.87;;;29.80;;
17570;SDS011;8903;52.220;20.978;2022-11-15T06:26:51;58.23;;;28.17;;
17570;SDS011;8903;52.220;20.978;2022-11-15T06:29:37;59.30;;;30.53;;
17570;SDS011;8903;52.220;20.978;2022-11-15T06:32:24;71.03;;;30.30;;
17570;SDS011;8903;52.220;20.978;2022-11-15T06:35:09;55.40;;;28.03;;
17570;SDS011;8903;52.220;20.978;2022-11-15T06:38:01;63.67;;;29.47;;
17570;SDS011;8903;52.220;20.978;2022-11-15T06:40:49;54.03;;;24.70;;
17570;SDS011;8903;52.220;20.978;2022-11-15T06:43:36;55.50;;;24.30;;
17570;SDS011;8903;52.220;20.978;2022-11-15T06:46:22;48.70;;;23.80;;
17570;SDS011;8903;52.220;20.978;2022-11-15T06:49:08;57.43;;;26.03;;
17570;SDS011;8903;52.220;20.978;2022-11-15T06:51:53;57.60;;;25.90;;
17570;SDS011;8903;52.220;20.978;2022-11-15T06:54:39;63.30;;;28.17;;
17570;SDS011;8903;52.220;20.978;2022-11-15T06:57:28;43.73;;;23.00;;
17570;SDS011;8903;52.220;20.978;2022-11-15T07:00:16;48.17;;;25.00;;
17570;SDS011;8903;52.220;20.978;2022-11-15T07:03:04;43.63;;;23.20;;
17570;SDS011;8903;52.220;20.978;2022-11-15T07:05:52;49.00;;;22.40;;
17570;SDS011;8903;52.220;20.978;2022-11-15T07:08:38;44.63;;;22.93;;
17570;SDS011;8903;52.220;20.978;2022-11-15T07:11:25;39.60;;;21.93;;
17570;SDS011;8903;52.220;20.978;2022-11-15T07:14:11;38.97;;;22.30;;
17570;SDS011;8903;52.220;20.978;2022-11-15T07:16:58;47.67;;;22.90;;
17570;SDS011;8903;52.220;20.978;2022-11-15T07:19:44;50.10;;;22.60;;
17570;SDS011;8903;52.220;20.978;2022-11-15T07:22:29;44.23;;;24.13;;
17570;SDS011;8903;52.220;20.978;2022-11-15T07:25:15;45.93;;;23.20;;
17570;SDS011;8903;52.220;20.978;2022-11-15T07:28:01;44.53;;;23.43;;
17570;SDS011;8903;52.220;20.978;2022-11-15T07:30:48;49.73;;;23.43;;
17570;SDS011;8903;52.220;20.978;2022-11-15T07:33:36;50.60;;;23.80;;
17570;SDS011;8903;52.220;20.978;2022-11-15T07:36:21;54.10;;;24.13;;
17570;SDS011;8903;52.220;20.978;2022-11-15T07:39:10;41.77;;;23.17;;
17570;SDS011;8903;52.220;20.978;2022-11-15T07:41:57;46.03;;;22.80;;
17570;SDS011;8903;52.220;20.978;2022-11-15T07:44:58;55.67;;;25.50;;
17570;SDS011;8903;52.220;20.978;2022-11-15T07:47:45;45.10;;;22.73;;
17570;SDS011;8903;52.220;20.978;2022-11-15T07:50:32;56.53;;;26.37;;
17570;SDS011;8903;52.220;20.978;2022-11-15T07:53:19;50.60;;;25.07;;
17570;SDS011;8903;52.220;20.978;2022-11-15T07:56:05;54.40;;;24.33;;
17570;SDS011;8903;52.220;20.978;2022-11-15T07:58:52;52.40;;;23.27;;
17570;SDS011;8903;52.220;20.978;2022-11-15T08:01:38;50.60;;;23.80;;
17570;SDS011;8903;52.220;20.978;2022-11-15T08:04:23;48.53;;;24.80;;
17570;SDS011;8903;52.220;20.978;2022-11-15T08:07:10;49.90;;;24.03;;
17570;SDS011;8903;52.220;20.978;2022-11-15T08:09:56;51.53;;;23.17;;
17570;SDS011;8903;52.220;20.978;2022-11-15T08:12:44;42.37;;;22.37;;
17570;SDS011;8903;52.220;20.978;2022-11-15T08:15:30;48.27;;;21.70;;
17570;SDS011;8903;52.220;20.978;2022-11-15T08:18:18;45.67;;;22.43;;
17570;SDS011;8903;52.220;20.978;2022-11-15T08:21:04;40.53;;;21.60;;
17570;SDS011;8903;52.220;20.978;2022-11-15T08:23:52;38.73;;;22.47;;
17570;SDS011;8903;52.220;20.978;2022-11-15T08:26:39;37.93;;;19.60;;
17570;SDS011;8903;52.220;20.978;2022-11-15T08:29:25;38.40;;;22.70;;
17570;SDS011;8903;52.220;20.978;2022-11-15T08:32:10;42.00;;;22.17;;
17570;SDS011;8903;52.220;20.978;2022-11-15T08:34:56;41.73;;;22.20;;
17570;SDS011;8903;52.220;20.978;2022-11-15T08:37:42;38.10;;;22.93;;
17570;SDS011;8903;52.220;20.978;2022-11-15T08:40:31;43.53;;;22.80;;
17570;SDS011;8903;52.220;20.978;2022-11-15T08:43:17;36.27;;;21.60;;
17570;SDS011;8903;52.220;20.978;2022-11-15T08:46:03;42.70;;;22.40;;
17570;SDS011;8903;52.220;20.978;2022-11-15T08:48:49;41.40;;;23.60;;
17570;SDS011;8903;52.220;20.978;2022-11-15T08:51:37;49.50;;;25.37;;
17570;SDS011;8903;52.220;20.978;2022-11-15T08:54:23;42.67;;;23.73;;
17570;SDS011;8903;52.220;20.978;2022-11-15T08:57:10;42.87;;;24.93;;
17570;SDS011;8903;52.220;20.978;2022-11-15T08:59:55;44.07;;;23.20;;
17570;SDS011;8903;52.220;20.978;2022-11-15T09:02:43;44.33;;;22.83;;
17570;SDS011;8903;52.220;20.978;2022-11-15T09:05:30;47.03;;;23.90;;
17570;SDS011;8903;52.220;20.978;2022-11-15T09:08:16;41.17;;;21.47;;
17570;SDS011;8903;52.220;20.978;2022-11-15T09:11:02;45.23;;;22.40;;
17570;SDS011;8903;52.220;20.978;2022-11-15T09:13:49;46.60;;;24.90;;
17570;SDS011;8903;52.220;20.978;2022-11-15T09:16:35;40.90;;;22.60;;
17570;SDS011;8903;52.220;20.978;2022-11-15T09:19:23;43.30;;;22.03;;
17570;SDS011;8903;52.220;20.978;2022-11-15T09:22:08;36.60;;;21.70;;
17570;SDS011;8903;52.220;20.978;2022-11-15T09:24:54;40.13;;;22.60;;
17570;SDS011;8903;52.220;20.978;2022-11-15T09:27:40;39.97;;;24.00;;
17570;SDS011;8903;52.220;20.978;2022-11-15T09:30:28;44.07;;;25.20;;
17570;SDS011;8903;52.220;20.978;2022-11-15T09:33:14;48.13;;;24.37;;
17570;SDS011;8903;52.220;20.978;2022-11-15T09:36:03;42.20;;;23.40;;
17570;SDS011;8903;52.220;20.978;2022-11-15T09:38:50;44.77;;;23.10;;
17570;SDS011;8903;52.220;20.978;2022-11-15T09:45:00;40.73;;;23.30;;
17570;SDS011;8903;52.220;20.978;2022-11-15T09:48:03;37.57;;;23.07;;
17570;SDS011;8903;52.220;20.978;2022-11-15T09:51:29;36.87;;;22.63;;
17570;SDS011;8903;52.220;20.978;2022-11-15T09:54:01;43.07;;;22.60;;
17570;SDS011;8903;52.220;20.978;2022-11-15T09:56:32;45.93;;;25.83;;
17570;SDS011;8903;52.220;20.978;2022-11-15T09:59:07;42.37;;;25.10;;
17570;SDS011;8903;52.220;20.978;2022-11-15T10:01:45;47.23;;;24.80;;
17570;SDS011;8903;52.220;20.978;2022-11-15T10:04:25;39.43;;;24.10;;
17570;SDS011;8903;52.220;20.978;2022-11-15T10:06:55;44.60;;;24.17;;
17570;SDS011;8903;52.220;20.978;2022-11-15T10:09:29;51.63;;;25.27;;
17570;SDS011;8903;52.220;20.978;2022-11-15T10:12:03;46.30;;;24.70;;
17570;SDS011;8903;52.220;20.978;2022-11-15T10:14:30;47.30;;;25.60;;
17570;SDS011;8903;52.220;20.978;2022-11-15T10:17:11;39.53;;;23.50;;
17570;SDS011;8903;52.220;20.978;2022-11-15T10:20:04;44.80;;;23.83;;
17570;SDS011;8903;52.220;20.978;2022-11-15T10:22:38;41.93;;;24.43;;
17570;SDS011;8903;52.220;20.978;2022-11-15T10:25:16;41.50;;;24.63;;
17570;SDS011;8903;52.220;20.978;2022-11-15T10:27:54;43.47;;;26.00;;
17570;SDS011;8903;52.220;20.978;2022-11-15T10:30:30;42.10;;;25.27;;
17570;SDS011;8903;52.220;20.978;2022-11-15T10:33:08;51.50;;;25.60;;
17570;SDS011;8903;52.220;20.978;2022-11-15T10:42:17;49.73;;;25.73;;
17570;SDS011;8903;52.220;20.978;2022-11-15T10:44:59;43.20;;;26.73;;
17570;SDS011;8903;52.220;20.978;2022-11-15T10:47:28;40.20;;;24.40;;
17570;SDS011;8903;52.220;20.978;2022-11-15T10:50:11;41.80;;;24.63;;
17570;SDS011;8903;52.220;20.978;2022-11-15T10:52:57;40.80;;;24.80;;
17570;SDS011;8903;52.220;20.978;2022-11-15T10:55:28;46.67;;;26.33;;
17570;SDS011;8903;52.220;20.978;2022-11-15T10:58:01;42.73;;;26.80;;
17570;SDS011;8903;52.220;20.978;2022-11-15T11:01:24;46.20;;;25.37;;
17570;SDS011;8903;52.220;20.978;2022-11-15T11:03:59;46.30;;;27.30;;
17570;SDS011;8903;52.220;20.978;2022-11-15T11:06:47;46.87;;;27.57;;
17570;SDS011;8903;52.220;20.978;2022-11-15T11:09:38;45.30;;;25.60;;
17570;SDS011;8903;52.220;20.978;2022-11-15T11:12:09;46.00;;;26.20;;
17570;SDS011;8903;52.220;20.978;2022-11-15T11:15:09;41.00;;;25.83;;
17570;SDS011;8903;52.220;20.978;2022-11-15T11:20:54;43.10;;;26.07;;
17570;SDS011;8903;52.220;20.978;2022-11-15T11:24:06;50.90;;;27.40;;
17570;SDS011;8903;52.220;20.978;2022-11-15T11:27:03;47.97;;;26.97;;
17570;SDS011;8903;52.220;20.978;2022-11-15T11:29:58;46.70;;;27.00;;
17570;SDS011;8903;52.220;20.978;2022-11-15T11:35:29;55.80;;;28.00;;
17570;SDS011;8903;52.220;20.978;2022-11-15T11:38:15;48.17;;;27.93;;
17570;SDS011;8903;52.220;20.978;2022-11-15T11:40:56;57.80;;;31.07;;
17570;SDS011;8903;52.220;20.978;2022-11-15T11:43:39;44.90;;;27.17;;
17570;SDS011;8903;52.220;20.978;2022-11-15T11:46:27;49.53;;;29.30;;
17570;SDS011;8903;52.220;20.978;2022-11-15T11:49:12;46.20;;;29.10;;
17570;SDS011;8903;52.220;20.978;2022-11-15T11:51:52;49.27;;;27.90;;
17570;SDS011;8903;52.220;20.978;2022-11-15T11:54:29;46.90;;;28.20;;
17570;SDS011;8903;52.220;20.978;2022-11-15T11:57:02;51.60;;;29.70;;
17570;SDS011;8903;52.220;20.978;2022-11-15T11:59:36;47.03;;;28.37;;
17570;SDS011;8903;52.220;20.978;2022-11-15T12:02:11;58.30;;;31.00;;
17570;SDS011;8903;52.220;20.978;2022-11-15T12:04:49;54.43;;;29.00;;
17570;SDS011;8903;52.220;20.978;2022-11-15T12:07:22;52.40;;;28.50;;
17570;SDS011;8903;52.220;20.978;2022-11-15T12:09:54;59.50;;;30.17;;
17570;SDS011;8903;52.220;20.978;2022-11-15T12:12:28;53.43;;;31.03;;
17570;SDS011;8903;52.220;20.978;2022-11-15T12:15:04;64.03;;;32.07;;
17570;SDS011;8903;52.220;20.978;2022-11-15T12:17:39;54.70;;;31.00;;
17570;SDS011;8903;52.220;20.978;2022-11-15T12:20:15;59.30;;;33.70;;
17570;SDS011;8903;52.220;20.978;2022-11-15T12:22:45;57.20;;;29.50;;
17570;SDS011;8903;52.220;20.978;2022-11-15T12:25:16;55.07;;;32.10;;
17570;SDS011;8903;52.220;20.978;2022-11-15T12:27:47;64.17;;;32.13;;
17570;SDS011;8903;52.220;20.978;2022-11-15T12:30:20;62.30;;;31.30;;
17570;SDS011;8903;52.220;20.978;2022-11-15T12:32:52;60.13;;;30.37;;
17570;SDS011;8903;52.220;20.978;2022-11-15T12:35:27;53.27;;;31.17;;
17570;SDS011;8903;52.220;20.978;2022-11-15T12:38:03;49.03;;;29.87;;
17570;SDS011;8903;52.220;20.978;2022-11-15T12:40:36;50.23;;;29.60;;
17570;SDS011;8903;52.220;20.978;2022-11-15T12:46:04;53.70;;;30.90;;
17570;SDS011;8903;52.220;20.978;2022-11-15T12:48:47;53.47;;;30.27;;
17570;SDS011;8903;52.220;20.978;2022-11-15T12:51:20;52.33;;;30.57;;
17570;SDS011;8903;52.220;20.978;2022-11-15T12:57:28;54.33;;;29.90;;
17570;SDS011;8903;52.220;20.978;2022-11-15T13:03:26;60.57;;;32.60;;
17570;SDS011;8903;52.220;20.978;2022-11-15T13:05:56;53.13;;;33.60;;
17570;SDS011;8903;52.220;20.978;2022-11-15T13:08:35;55.07;;;30.00;;
17570;SDS011;8903;52.220;20.978;2022-11-15T13:17:25;57.43;;;32.70;;
17570;SDS011;8903;52.220;20.978;2022-11-15T13:20:24;49.83;;;28.30;;
17570;SDS011;8903;52.220;20.978;2022-11-15T13:22:59;53.87;;;31.33;;
17570;SDS011;8903;52.220;20.978;2022-11-15T13:25:40;51.33;;;33.47;;
17570;SDS011;8903;52.220;20.978;2022-11-15T13:28:21;57.53;;;31.13;;
17570;SDS011;8903;52.220;20.978;2022-11-15T13:30:56;50.40;;;29.83;;
17570;SDS011;8903;52.220;20.978;2022-11-15T13:33:32;56.40;;;31.30;;
17570;SDS011;8903;52.220;20.978;2022-11-15T13:36:03;72.07;;;33.60;;
17570;SDS011;8903;52.220;20.978;2022-11-15T13:38:35;51.87;;;30.83;;
17570;SDS011;8903;52.220;20.978;2022-11-15T13:41:11;62.03;;;34.27;;
17570;SDS011;8903;52.220;20.978;2022-11-15T13:43:45;62.40;;;34.17;;
17570;SDS011;8903;52.220;20.978;2022-11-15T13:46:15;63.87;;;33.47;;
17570;SDS011;8903;52.220;20.978;2022-11-15T13:48:44;55.40;;;34.10;;
17570;SDS011;8903;52.220;20.978;2022-11-15T13:51:17;60.07;;;32.80;;
17570;SDS011;8903;52.220;20.978;2022-11-15T13:53:51;59.50;;;32.63;;
17570;SDS011;8903;52.220;20.978;2022-11-15T13:56:21;65.50;;;32.10;;
17570;SDS011;8903;52.220;20.978;2022-11-15T13:58:49;59.60;;;33.13;;
17570;SDS011;8903;52.220;20.978;2022-11-15T14:01:18;56.23;;;32.10;;
17570;SDS011;8903;52.220;20.978;2022-11-15T14:03:48;59.57;;;32.80;;
17570;SDS011;8903;52.220;20.978;2022-11-15T14:06:20;64.87;;;32.97;;
17570;SDS011;8903;52.220;20.978;2022-11-15T14:12:24;64.10;;;32.80;;
17570;SDS011;8903;52.220;20.978;2022-11-15T14:14:58;70.03;;;34.27;;
17570;SDS011;8903;52.220;20.978;2022-11-15T14:17:34;62.90;;;34.23;;
17570;SDS011;8903;52.220;20.978;2022-11-15T14:20:26;68.43;;;35.97;;
17570;SDS011;8903;52.220;20.978;2022-11-15T14:22:58;66.43;;;35.37;;
17570;SDS011;8903;52.220;20.978;2022-11-15T14:25:27;64.87;;;34.40;;
17570;SDS011;8903;52.220;20.978;2022-11-15T14:28:12;65.70;;;34.80;;
17570;SDS011;8903;52.220;20.978;2022-11-15T14:30:42;62.80;;;34.67;;
17570;SDS011;8903;52.220;20.978;2022-11-15T14:33:19;72.00;;;37.27;;
17570;SDS011;8903;52.220;20.978;2022-11-15T14:35:48;64.80;;;34.87;;
17570;SDS011;8903;52.220;20.978;2022-11-15T14:38:17;60.87;;;34.50;;
17570;SDS011;8903;52.220;20.978;2022-11-15T14:40:45;63.23;;;34.83;;
17570;SDS011;8903;52.220;20.978;2022-11-15T14:43:12;53.73;;;33.60;;
17570;SDS011;8903;52.220;20.978;2022-11-15T14:45:40;68.37;;;34.00;;
17570;SDS011;8903;52.220;20.978;2022-11-15T14:48:14;66.97;;;34.70;;
17570;SDS011;8903;52.220;20.978;2022-11-15T14:50:41;65.87;;;33.93;;
17570;SDS011;8903;52.220;20.978;2022-11-15T14:53:11;68.53;;;35.30;;
17570;SDS011;8903;52.220;20.978;2022-11-15T14:55:42;65.33;;;36.43;;
17570;SDS011;8903;52.220;20.978;2022-11-15T14:58:09;73.80;;;35.07;;
17570;SDS011;8903;52.220;20.978;2022-11-15T15:00:38;69.87;;;36.20;;
17570;SDS011;8903;52.220;20.978;2022-11-15T15:03:07;65.07;;;35.10;;
17570;SDS011;8903;52.220;20.978;2022-11-15T15:05:35;68.13;;;36.00;;
17570;SDS011;8903;52.220;20.978;2022-11-15T15:08:04;63.70;;;33.80;;
17570;SDS011;8903;52.220;20.978;2022-11-15T15:10:32;62.00;;;34.10;;
17570;SDS011;8903;52.220;20.978;2022-11-15T15:13:03;63.60;;;33.60;;
17570;SDS011;8903;52.220;20.978;2022-11-15T15:15:37;70.30;;;33.47;;
17570;SDS011;8903;52.220;20.978;2022-11-15T15:18:06;66.87;;;34.37;;
17570;SDS011;8903;52.220;20.978;2022-11-15T15:20:34;59.67;;;34.03;;
17570;SDS011;8903;52.220;20.978;2022-11-15T15:23:04;61.80;;;33.63;;
17570;SDS011;8903;52.220;20.978;2022-11-15T15:25:44;67.47;;;33.17;;
17570;SDS011;8903;52.220;20.978;2022-11-15T15:28:14;68.40;;;35.13;;
17570;SDS011;8903;52.220;20.978;2022-11-15T15:30:41;63.43;;;33.70;;
17570;SDS011;8903;52.220;20.978;2022-11-15T15:33:09;68.00;;;34.30;;
17570;SDS011;8903;52.220;20.978;2022-11-15T15:35:36;60.97;;;32.57;;
17570;SDS011;8903;52.220;20.978;2022-11-15T15:38:04;67.33;;;33.47;;
17570;SDS011;8903;52.220;20.978;2022-11-15T15:40:32;75.87;;;35.87;;
17570;SDS011;8903;52.220;20.978;2022-11-15T15:43:02;68.20;;;35.43;;
17570;SDS011;8903;52.220;20.978;2022-11-15T15:45:31;71.30;;;35.73;;
17570;SDS011;8903;52.220;20.978;2022-11-15T15:47:59;73.70;;;35.80;;
17570;SDS011;8903;52.220;20.978;2022-11-15T15:50:28;69.87;;;35.60;;
17570;SDS011;8903;52.220;20.978;2022-11-15T15:52:59;82.43;;;34.53;;
17570;SDS011;8903;52.220;20.978;2022-11-15T15:55:31;67.80;;;34.93;;
17570;SDS011;8903;52.220;20.978;2022-11-15T15:57:59;74.33;;;35.23;;
17570;SDS011;8903;52.220;20.978;2022-11-15T16:00:27;76.57;;;34.20;;
17570;SDS011;8903;52.220;20.978;2022-11-15T16:02:59;68.67;;;35.10;;
17570;SDS011;8903;52.220;20.978;2022-11-15T16:05:26;69.63;;;34.60;;
17570;SDS011;8903;52.220;20.978;2022-11-15T16:07:54;66.10;;;33.80;;
17570;SDS011;8903;52.220;20.978;2022-11-15T16:10:22;66.90;;;34.43;;
17570;SDS011;8903;52.220;20.978;2022-11-15T16:12:51;67.87;;;33.43;;
17570;SDS011;8903;52.220;20.978;2022-11-15T16:15:20;67.43;;;33.57;;
17570;SDS011;8903;52.220;20.978;2022-11-15T16:17:50;76.63;;;33.33;;
17570;SDS011;8903;52.220;20.978;2022-11-15T16:20:23;70.53;;;35.10;;
17570;SDS011;8903;52.220;20.978;2022-11-15T16:22:58;69.63;;;34.27;;
17570;SDS011;8903;52.220;20.978;2022-11-15T16:25:27;64.97;;;33.43;;
17570;SDS011;8903;52.220;20.978;2022-11-15T16:27:57;72.37;;;35.37;;
17570;SDS011;8903;52.220;20.978;2022-11-15T16:30:24;81.07;;;38.50;;
17570;SDS011;8903;52.220;20.978;2022-11-15T16:32:51;71.03;;;35.67;;